Time;durP1;ratioP1;P1;durP2;ratioP2;P2;SDS_P1;SDS_P2;PMS_P1;PMS_P2;Temp;Humidity;BMP_temperature;BMP_pressure;BME280_temperature;BME280_humidity;BME280_pressure;Samples;Min_cycle;Max_cycle;Signal;HPM_P1;HPM_P2
2023/07/22 00:00:30;;;;;;;14.90;7.72;;;17.80;78.30;;;;;;5094540;28;20021;-76
2023/07/22 00:02:55;;;;;;;13.90;7.28;;;17.80;78.30;;;;;;5095536;28;20032;-76
2023/07/22 00:05:23;;;;;;;13.02;7.70;;;17.80;78.30;;;;;;5094565;28;20052;-76
2023/07/22 00:07:50;;;;;;;12.68;7.43;;;17.80;78.60;;;;;;5094484;28;20020;-76
2023/07/22 00:10:16;;;;;;;13.60;7.70;;;17.80;78.70;;;;;;5095372;28;20032;-76
2023/07/22 00:12:42;;;;;;;13.07;6.97;;;17.80;78.40;;;;;;5095439;28;20056;-76
2023/07/22 00:15:11;;;;;;;12.52;7.15;;;17.80;78.30;;;;;;5095460;28;20078;-76
2023/07/22 00:17:37;;;;;;;13.93;7.10;;;17.70;78.20;;;;;;5095411;28;20021;-76
2023/07/22 00:20:04;;;;;;;12.30;7.13;;;17.60;78.30;;;;;;5094266;28;20108;-76
2023/07/22 00:22:31;;;;;;;12.55;7.07;;;17.60;79.40;;;;;;5094252;28;20081;-76
2023/07/22 00:24:59;;;;;;;13.20;7.18;;;17.50;78.60;;;;;;5094173;28;20020;-76
2023/07/22 00:27:25;;;;;;;12.90;7.40;;;17.40;78.70;;;;;;5094157;28;20025;-76
2023/07/22 00:29:51;;;;;;;13.30;7.32;;;17.40;78.90;;;;;;5095010;28;20025;-76
2023/07/22 00:32:17;;;;;;;13.50;7.18;;;17.30;78.90;;;;;;5095025;28;20476;-76
2023/07/22 00:34:42;;;;;;;15.18;6.85;;;17.30;79.00;;;;;;5093893;28;20021;-76
2023/07/22 00:37:08;;;;;;;12.50;6.88;;;17.30;79.10;;;;;;5094859;28;20025;-76
2023/07/22 00:39:34;;;;;;;11.40;6.72;;;17.30;79.20;;;;;;5092900;28;20048;-76
2023/07/22 00:41:59;;;;;;;14.30;7.97;;;17.30;79.30;;;;;;5094745;28;20029;-76
2023/07/22 00:44:25;;;;;;;14.23;7.70;;;17.30;79.30;;;;;;5093666;28;20029;-76
2023/07/22 00:46:55;;;;;;;12.05;6.93;;;17.20;79.50;;;;;;5094655;28;20024;-76
2023/07/22 00:49:22;;;;;;;13.98;7.05;;;17.30;80.50;;;;;;5094747;28;20112;-76
2023/07/22 00:51:48;;;;;;;13.80;6.75;;;17.30;79.60;;;;;;5093533;28;20032;-76
2023/07/22 00:54:14;;;;;;;11.95;6.80;;;17.20;79.60;;;;;;5094499;28;20029;-76
2023/07/22 00:56:41;;;;;;;15.40;7.32;;;17.20;79.60;;;;;;5093305;28;20052;-76
2023/07/22 00:59:07;;;;;;;13.35;7.47;;;17.20;79.70;;;;;;5094437;28;20024;-77
2023/07/22 01:01:32;;;;;;;13.27;7.00;;;17.30;79.60;;;;;;5093447;28;20031;-76
2023/07/22 01:03:59;;;;;;;15.27;7.28;;;17.30;79.70;;;;;;5093358;28;20033;-76
2023/07/22 01:06:25;;;;;;;14.25;7.35;;;17.30;79.70;;;;;;5093249;28;20096;-76
2023/07/22 01:08:51;;;;;;;13.38;7.07;;;17.20;79.60;;;;;;5093282;28;20124;-76
2023/07/22 01:11:17;;;;;;;12.35;6.93;;;17.20;79.40;;;;;;5094108;28;20032;-76
2023/07/22 01:13:43;;;;;;;14.68;7.57;;;17.20;79.60;;;;;;5093266;28;20047;-76
2023/07/22 01:16:08;;;;;;;15.35;7.28;;;17.20;79.70;;;;;;5093172;28;20017;-76
2023/07/22 01:18:35;;;;;;;17.98;7.32;;;17.20;79.80;;;;;;5094041;28;20021;-76
2023/07/22 01:21:01;;;;;;;13.57;7.05;;;17.20;79.90;;;;;;5094006;28;20048;-76
2023/07/22 01:23:26;;;;;;;15.38;7.40;;;17.20;79.90;;;;;;5094055;28;20036;-76
2023/07/22 01:25:53;;;;;;;16.42;8.38;;;17.20;80.10;;;;;;5093931;28;20029;-76
2023/07/22 01:28:21;;;;;;;18.05;8.68;;;17.20;80.10;;;;;;5093861;28;20021;-76
2023/07/22 01:30:47;;;;;;;14.60;7.13;;;17.20;80.10;;;;;;5092874;28;20029;-76
2023/07/22 01:33:12;;;;;;;16.83;7.57;;;17.10;80.60;;;;;;5076071;28;20033;-76
2023/07/22 01:35:38;;;;;;;15.48;7.30;;;17.10;80.80;;;;;;5092663;28;20039;-76
2023/07/22 01:38:03;;;;;;;15.55;7.55;;;17.10;80.90;;;;;;5093690;28;20036;-76
2023/07/22 01:40:29;;;;;;;15.05;7.50;;;17.10;81.30;;;;;;5092828;28;20024;-76
2023/07/22 01:42:55;;;;;;;15.52;7.60;;;17.10;81.50;;;;;;5092761;28;20032;-76
2023/07/22 01:45:20;;;;;;;15.50;8.30;;;17.10;81.50;;;;;;5092713;28;20029;-76
2023/07/22 01:47:46;;;;;;;15.10;7.78;;;17.10;81.80;;;;;;5092575;28;20032;-76
2023/07/22 01:50:12;;;;;;;17.50;8.05;;;17.10;82.10;;;;;;5093321;28;20084;-76
2023/07/22 01:52:37;;;;;;;18.92;8.20;;;17.00;82.20;;;;;;5092542;28;20033;-76
2023/07/22 01:55:05;;;;;;;19.95;8.25;;;17.00;82.80;;;;;;5092281;28;20060;-76
2023/07/22 01:57:32;;;;;;;15.27;8.15;;;17.00;82.70;;;;;;5093450;28;20144;-76
2023/07/22 01:59:58;;;;;;;15.57;7.72;;;17.00;82.80;;;;;;5092551;28;20039;-76
2023/07/22 02:02:23;;;;;;;15.48;7.65;;;17.00;82.80;;;;;;5093416;28;20028;-76
2023/07/22 02:04:49;;;;;;;17.05;8.80;;;17.10;82.70;;;;;;5092437;28;20039;-76
2023/07/22 02:07:15;;;;;;;16.13;8.30;;;17.00;82.60;;;;;;5093367;28;20035;-76
2023/07/22 02:09:40;;;;;;;18.05;8.60;;;17.00;82.60;;;;;;5092470;28;20070;-76
2023/07/22 02:12:07;;;;;;;14.90;7.88;;;17.00;82.60;;;;;;5092325;28;20074;-76
2023/07/22 02:14:33;;;;;;;18.70;7.88;;;17.00;82.50;;;;;;5092307;28;20570;-76
2023/07/22 02:16:59;;;;;;;15.25;7.78;;;17.00;82.40;;;;;;5075610;28;20020;-76
2023/07/22 02:19:24;;;;;;;14.05;7.60;;;17.00;82.40;;;;;;5093259;28;20024;-77
2023/07/22 02:21:50;;;;;;;15.70;8.43;;;17.00;82.40;;;;;;5092130;28;20032;-76
2023/07/22 02:24:16;;;;;;;15.43;7.97;;;16.90;82.40;;;;;;5093193;28;20040;-76
2023/07/22 02:26:41;;;;;;;16.77;7.70;;;16.90;82.40;;;;;;5092190;28;20012;-76
2023/07/22 02:29:07;;;;;;;16.40;8.38;;;17.00;82.40;;;;;;5092200;28;20029;-76
2023/07/22 02:31:33;;;;;;;14.65;7.60;;;17.00;82.40;;;;;;5092298;28;20024;-76
2023/07/22 02:33:59;;;;;;;14.88;7.03;;;17.00;82.40;;;;;;5093018;28;20071;-76
2023/07/22 02:36:24;;;;;;;17.60;7.95;;;17.00;82.30;;;;;;5093026;28;20021;-76
2023/07/22 02:38:50;;;;;;;15.90;8.07;;;17.00;82.20;;;;;;5092006;28;20021;-76
2023/07/22 02:41:17;;;;;;;15.25;8.00;;;17.00;82.10;;;;;;5075262;28;20029;-76
2023/07/22 02:43:43;;;;;;;15.00;7.68;;;17.00;82.10;;;;;;5093037;28;20025;-76
2023/07/22 02:46:09;;;;;;;15.05;7.88;;;16.90;82.10;;;;;;5075418;28;20029;-76
2023/07/22 02:48:34;;;;;;;16.48;7.68;;;16.90;82.30;;;;;;5092133;28;20057;-76
2023/07/22 02:51:07;;;;;;;16.30;8.93;;;16.90;82.30;;;;;;5092841;28;20039;-76
2023/07/22 02:53:34;;;;;;;14.10;7.45;;;17.00;82.30;;;;;;5092072;28;20017;-77
2023/07/22 02:56:00;;;;;;;23.13;9.18;;;17.00;82.50;;;;;;5092722;28;20056;-76
2023/07/22 02:58:26;;;;;;;16.95;7.70;;;16.90;82.60;;;;;;5092846;28;20013;-76
2023/07/22 03:00:52;;;;;;;15.30;7.38;;;16.90;82.70;;;;;;5075131;28;20115;-76
2023/07/22 03:03:18;;;;;;;13.38;6.85;;;16.90;82.80;;;;;;5096330;28;20376;-76
2023/07/22 03:05:44;;;;;;;16.75;7.53;;;17.00;82.80;;;;;;5095679;28;20029;-76
2023/07/22 03:08:10;;;;;;;16.85;8.20;;;17.00;82.80;;;;;;5096545;28;20052;-76
2023/07/22 03:10:36;;;;;;;14.63;7.15;;;17.00;82.60;;;;;;5096506;28;20051;-76
2023/07/22 03:13:03;;;;;;;16.55;7.30;;;17.00;82.40;;;;;;5095582;28;20495;-76
2023/07/22 03:15:29;;;;;;;13.90;7.50;;;17.00;82.00;;;;;;5095514;28;20027;-76
2023/07/22 03:17:56;;;;;;;14.35;8.10;;;17.00;82.00;;;;;;5096372;28;20048;-76
2023/07/22 03:20:23;;;;;;;14.32;7.50;;;16.90;82.00;;;;;;5096311;28;20469;-76
2023/07/22 03:22:48;;;;;;;14.15;7.60;;;16.90;82.20;;;;;;5095333;28;20028;-76
2023/07/22 03:25:16;;;;;;;14.85;7.25;;;16.90;82.40;;;;;;5096237;28;20036;-76
2023/07/22 03:27:43;;;;;;;15.57;7.85;;;16.90;82.20;;;;;;5096200;28;20017;-76
2023/07/22 03:30:14;;;;;;;16.67;8.10;;;16.90;82.00;;;;;;5095159;28;20033;-76
2023/07/22 03:32:42;;;;;;;12.82;6.82;;;16.90;81.80;;;;;;5090713;28;20032;-77
2023/07/22 03:35:09;;;;;;;15.02;7.57;;;16.80;81.80;;;;;;5095119;28;20025;-75
2023/07/22 03:37:36;;;;;;;16.58;7.88;;;16.80;81.80;;;;;;5096047;28;20087;-76
2023/07/22 03:40:06;;;;;;;15.10;7.53;;;16.80;82.00;;;;;;5094970;28;20078;-76
2023/07/22 03:42:32;;;;;;;13.38;7.50;;;16.70;81.70;;;;;;5096132;28;20036;-76
2023/07/22 03:44:57;;;;;;;13.45;7.45;;;16.70;81.70;;;;;;5094921;28;20039;-76
2023/07/22 03:47:23;;;;;;;14.02;7.95;;;16.70;81.70;;;;;;5095859;28;20028;-76
2023/07/22 03:49:48;;;;;;;16.45;7.25;;;16.60;81.80;;;;;;5094892;28;20032;-76
2023/07/22 03:52:18;;;;;;;13.52;7.63;;;16.60;81.90;;;;;;5095687;28;20024;-77
2023/07/22 03:54:44;;;;;;;15.10;7.75;;;16.60;81.80;;;;;;5095577;28;20040;-76
2023/07/22 03:57:09;;;;;;;14.63;7.78;;;16.50;81.60;;;;;;5095616;28;20050;-76
2023/07/22 03:59:35;;;;;;;12.95;7.18;;;16.50;81.80;;;;;;5094692;28;20049;-76
2023/07/22 04:02:01;;;;;;;15.05;7.82;;;16.40;82.00;;;;;;5094678;28;20043;-76
2023/07/22 04:04:27;;;;;;;15.50;7.75;;;16.40;82.20;;;;;;5094603;28;20098;-76
2023/07/22 04:06:52;;;;;;;15.60;7.57;;;16.40;82.40;;;;;;5077820;28;20025;-76
2023/07/22 04:09:18;;;;;;;14.07;7.03;;;16.40;82.40;;;;;;5094507;28;20032;-75
2023/07/22 04:11:43;;;;;;;14.80;7.75;;;16.40;82.30;;;;;;5094284;28;20029;-76
2023/07/22 04:14:09;;;;;;;13.90;7.75;;;16.40;82.30;;;;;;5077643;28;20025;-76
2023/07/22 04:16:34;;;;;;;14.43;7.82;;;16.40;82.10;;;;;;5094254;28;20064;-76
2023/07/22 04:19:01;;;;;;;14.55;7.93;;;16.40;82.10;;;;;;5094413;28;20020;-76
2023/07/22 04:21:26;;;;;;;16.02;7.45;;;16.30;82.40;;;;;;5095197;28;20031;-76
2023/07/22 04:23:53;;;;;;;13.63;7.30;;;16.30;82.70;;;;;;5095162;28;20387;-76
2023/07/22 04:26:19;;;;;;;13.30;7.40;;;16.30;82.70;;;;;;5095132;28;20020;-76
2023/07/22 04:28:44;;;;;;;17.52;7.45;;;16.30;82.70;;;;;;5095088;28;20054;-76
2023/07/22 04:31:11;;;;;;;16.55;7.75;;;16.30;82.80;;;;;;5094023;28;20043;-76
2023/07/22 04:33:36;;;;;;;16.70;7.60;;;16.30;82.90;;;;;;5095032;28;20028;-76
2023/07/22 04:36:02;;;;;;;15.27;7.72;;;16.30;82.90;;;;;;5077161;28;20036;-76
2023/07/22 04:38:28;;;;;;;13.40;7.72;;;16.20;83.00;;;;;;5094882;28;20055;-76
2023/07/22 04:40:53;;;;;;;14.70;7.95;;;16.20;83.10;;;;;;5093901;28;20021;-76
2023/07/22 04:43:19;;;;;;;16.17;7.80;;;16.20;83.30;;;;;;5094734;28;20040;-77
2023/07/22 04:45:47;;;;;;;14.02;7.70;;;16.10;83.50;;;;;;5094712;28;20039;-76
2023/07/22 04:48:15;;;;;;;15.75;7.75;;;16.20;83.50;;;;;;5093455;28;20041;-77
2023/07/22 04:50:44;;;;;;;14.05;7.88;;;16.10;83.40;;;;;;5094631;28;20024;-76
2023/07/22 04:53:10;;;;;;;17.63;7.93;;;16.10;83.70;;;;;;5094495;28;20029;-76
2023/07/22 04:55:37;;;;;;;16.63;8.05;;;16.00;83.80;;;;;;5094297;28;20123;-76
2023/07/22 04:58:02;;;;;;;14.52;7.82;;;16.00;84.00;;;;;;5093539;28;20024;-77
2023/07/22 05:00:28;;;;;;;15.77;8.18;;;16.00;84.30;;;;;;5093483;28;20030;-76
2023/07/22 05:02:56;;;;;;;16.48;8.00;;;16.00;84.50;;;;;;5076860;28;20025;-76
2023/07/22 05:05:21;;;;;;;16.73;8.50;;;16.00;84.80;;;;;;5093293;28;20031;-76
2023/07/22 05:07:49;;;;;;;16.38;7.70;;;16.00;85.00;;;;;;5094273;28;20094;-76
2023/07/22 05:10:15;;;;;;;18.02;7.97;;;15.90;85.30;;;;;;5093297;28;20027;-76
2023/07/22 05:12:41;;;;;;;19.45;8.40;;;15.90;85.80;;;;;;5094101;28;20068;-76
2023/07/22 05:15:09;;;;;;;14.82;7.35;;;15.90;85.80;;;;;;5093176;28;20024;-76
2023/07/22 05:17:35;;;;;;;16.55;8.82;;;15.90;86.10;;;;;;5093008;28;20049;-76
2023/07/22 05:20:00;;;;;;;16.17;8.48;;;16.00;86.20;;;;;;5093172;28;20016;-77
2023/07/22 05:22:26;;;;;;;20.15;8.18;;;16.00;86.10;;;;;;5093066;28;20111;-76
2023/07/22 05:24:51;;;;;;;16.83;8.25;;;16.10;86.00;;;;;;5092512;28;20036;-76
2023/07/22 05:27:18;;;;;;;18.90;8.60;;;16.10;86.00;;;;;;5093883;28;20088;-76
2023/07/22 05:29:44;;;;;;;17.27;8.25;;;16.10;86.10;;;;;;5093863;28;20488;-76
2023/07/22 05:32:11;;;;;;;16.98;9.02;;;16.10;86.00;;;;;;5093736;28;20084;-76
2023/07/22 05:34:36;;;;;;;16.35;8.52;;;16.10;86.40;;;;;;5093707;28;20070;-75
2023/07/22 05:37:02;;;;;;;18.73;8.85;;;16.10;86.80;;;;;;5093722;28;20033;-76
2023/07/22 05:39:28;;;;;;;18.42;8.48;;;16.20;86.80;;;;;;5092856;28;20027;-77
2023/07/22 05:41:53;;;;;;;16.60;7.78;;;16.20;87.70;;;;;;5093671;28;20111;-75
2023/07/22 05:44:19;;;;;;;17.60;9.00;;;16.20;87.00;;;;;;5093498;28;20028;-76
2023/07/22 05:46:45;;;;;;;16.67;8.27;;;16.20;86.90;;;;;;5093597;28;20077;-76
2023/07/22 05:49:10;;;;;;;16.52;8.10;;;16.30;87.00;;;;;;5092589;28;20033;-76
2023/07/22 05:51:37;;;;;;;18.20;8.32;;;16.20;86.90;;;;;;5092398;28;20031;-76
2023/07/22 05:54:02;;;;;;;19.73;9.07;;;16.20;87.10;;;;;;5093525;28;20024;-76
2023/07/22 05:56:28;;;;;;;24.20;10.27;;;16.30;88.20;;;;;;5092337;28;20062;-75
2023/07/22 05:58:54;;;;;;;17.63;8.45;;;16.40;87.40;;;;;;5092475;28;20024;-76
2023/07/22 06:01:20;;;;;;;21.10;8.88;;;16.40;87.60;;;;;;5092507;28;20032;-75
2023/07/22 06:03:45;;;;;;;17.00;8.75;;;16.40;88.00;;;;;;5093376;28;20031;-76
2023/07/22 06:06:11;;;;;;;16.70;8.13;;;16.50;87.80;;;;;;5092451;28;20032;-76
2023/07/22 06:08:37;;;;;;;18.42;8.30;;;16.50;87.90;;;;;;5092333;28;20035;-76
2023/07/22 06:11:02;;;;;;;18.30;8.60;;;16.50;88.40;;;;;;5093311;28;20029;-76
2023/07/22 06:13:28;;;;;;;14.10;7.72;;;16.50;88.40;;;;;;5093243;28;20028;-76
2023/07/22 06:15:53;;;;;;;24.88;9.38;;;16.60;88.20;;;;;;5092259;28;20025;-76
2023/07/22 06:18:19;;;;;;;16.95;7.75;;;16.60;87.80;;;;;;5092237;28;20028;-76
2023/07/22 06:20:45;;;;;;;18.70;8.13;;;16.70;87.90;;;;;;5092310;28;20029;-76
2023/07/22 06:23:11;;;;;;;15.90;7.70;;;16.70;87.90;;;;;;5093224;28;20099;-76
2023/07/22 06:25:37;;;;;;;16.42;8.90;;;16.80;87.70;;;;;;5093224;28;20044;-76
2023/07/22 06:28:03;;;;;;;15.65;8.00;;;16.70;88.00;;;;;;5093195;28;20025;-76
2023/07/22 06:30:28;;;;;;;17.50;8.27;;;16.80;88.90;;;;;;5093169;28;20024;-76
2023/07/22 06:32:54;;;;;;;17.35;8.05;;;16.90;88.50;;;;;;5092159;28;20459;-77
2023/07/22 06:35:20;;;;;;;15.82;7.43;;;17.00;87.90;;;;;;5093092;28;20021;-76
2023/07/22 06:37:46;;;;;;;20.50;9.18;;;17.00;88.10;;;;;;5095879;28;20387;-76
2023/07/22 06:40:11;;;;;;;13.98;7.68;;;17.10;88.10;;;;;;5096260;28;20049;-77
2023/07/22 06:42:37;;;;;;;16.95;8.07;;;17.10;87.60;;;;;;5096086;28;20036;-77
2023/07/22 06:45:03;;;;;;;18.08;8.25;;;17.20;88.10;;;;;;5097159;28;20097;-77
2023/07/22 06:47:29;;;;;;;17.25;9.27;;;17.30;89.00;;;;;;5095948;28;20092;-76
2023/07/22 06:49:54;;;;;;;19.83;7.75;;;17.30;88.10;;;;;;5095898;28;20086;-76
2023/07/22 06:52:20;;;;;;;19.33;8.43;;;17.40;87.40;;;;;;5096857;28;20084;-76
2023/07/22 06:54:46;;;;;;;20.17;8.15;;;17.30;87.70;;;;;;5096852;28;20033;-77
2023/07/22 06:57:11;;;;;;;18.48;8.57;;;17.40;87.60;;;;;;5095703;28;20123;-76
2023/07/22 06:59:37;;;;;;;20.92;9.57;;;17.40;88.20;;;;;;5096763;28;20029;-76
2023/07/22 07:02:06;;;;;;;20.10;8.75;;;17.50;88.00;;;;;;5096681;28;20100;-77
2023/07/22 07:04:32;;;;;;;17.27;8.60;;;17.60;87.80;;;;;;5095623;28;20080;-77
2023/07/22 07:06:57;;;;;;;22.95;9.02;;;17.60;87.70;;;;;;5096617;28;20040;-77
2023/07/22 07:09:23;;;;;;;22.75;9.75;;;17.50;88.40;;;;;;5078937;28;20032;-77
2023/07/22 07:11:48;;;;;;;19.60;9.68;;;17.60;89.40;;;;;;5078960;28;20055;-78
2023/07/22 07:14:14;;;;;;;21.38;9.88;;;17.70;88.40;;;;;;5095618;28;20035;-77
2023/07/22 07:16:40;;;;;;;20.48;8.38;;;17.70;88.20;;;;;;5096434;28;20024;-77
2023/07/22 07:19:06;;;;;;;17.23;7.97;;;17.70;88.00;;;;;;5095473;28;20048;-77
2023/07/22 07:21:32;;;;;;;21.30;9.93;;;17.80;88.60;;;;;;5095310;28;20025;-77
2023/07/22 07:23:57;;;;;;;20.17;9.75;;;17.90;88.30;;;;;;5096421;28;20028;-77
2023/07/22 07:26:23;;;;;;;21.33;8.80;;;18.00;88.00;;;;;;5096375;28;20024;-77
2023/07/22 07:28:52;;;;;;;19.42;8.50;;;18.00;87.50;;;;;;5096138;28;20037;-77
2023/07/22 07:31:18;;;;;;;20.90;9.02;;;18.00;87.30;;;;;;5096087;28;20036;-76
2023/07/22 07:33:44;;;;;;;21.92;9.38;;;18.10;87.00;;;;;;5096138;28;20021;-76
2023/07/22 07:36:09;;;;;;;20.05;10.25;;;18.10;86.90;;;;;;5096077;28;20056;-76
2023/07/22 07:38:35;;;;;;;20.40;9.07;;;18.30;87.60;;;;;;5096039;28;20032;-76
2023/07/22 07:41:11;;;;;;;17.48;8.75;;;18.30;88.10;;;;;;5095021;28;20032;-76
2023/07/22 07:43:40;;;;;;;18.83;9.10;;;18.40;88.00;;;;;;5078992;28;20036;-77
2023/07/22 07:46:17;;;;;;;17.27;8.75;;;18.30;87.20;;;;;;5094960;28;20028;-76
2023/07/22 07:48:46;;;;;;;20.55;8.90;;;18.30;87.30;;;;;;5095584;28;20020;-76
2023/07/22 07:51:14;;;;;;;20.98;10.05;;;18.30;86.80;;;;;;5095879;28;20056;-77
2023/07/22 07:53:40;;;;;;;17.48;8.13;;;18.40;87.10;;;;;;5095742;28;20050;-77
2023/07/22 07:56:06;;;;;;;19.23;8.10;;;18.30;87.00;;;;;;5095445;28;20458;-76
2023/07/22 07:58:32;;;;;;;20.90;7.95;;;18.30;87.30;;;;;;5095669;28;20047;-76
2023/07/22 08:00:58;;;;;;;16.38;8.07;;;18.30;86.80;;;;;;5095592;28;20052;-77
2023/07/22 08:03:23;;;;;;;20.00;8.45;;;18.40;86.50;;;;;;5094676;28;20078;-79
2023/07/22 08:05:49;;;;;;;18.67;9.02;;;18.40;87.30;;;;;;5077834;28;20048;-78
2023/07/22 08:08:14;;;;;;;18.25;8.95;;;18.40;86.80;;;;;;5094534;28;20037;-76
2023/07/22 08:10:40;;;;;;;18.83;8.77;;;18.50;87.50;;;;;;5095520;28;20063;-79
2023/07/22 08:13:06;;;;;;;19.23;9.07;;;18.60;86.50;;;;;;5095291;28;20025;-75
2023/07/22 08:15:31;;;;;;;18.10;8.13;;;18.50;86.10;;;;;;5094284;28;20037;-78
2023/07/22 08:17:57;;;;;;;18.10;8.32;;;18.50;86.70;;;;;;5095238;28;20035;-75
2023/07/22 08:20:23;;;;;;;16.35;8.43;;;18.60;86.40;;;;;;5095215;28;20039;-77
2023/07/22 08:22:48;;;;;;;17.27;8.98;;;18.70;86.60;;;;;;5095126;28;20032;-79
2023/07/22 08:25:14;;;;;;;18.50;8.85;;;18.70;86.50;;;;;;5095105;28;20056;-78
2023/07/22 08:27:39;;;;;;;19.08;8.75;;;18.70;86.30;;;;;;5094186;28;20043;-78
2023/07/22 08:30:06;;;;;;;15.93;8.02;;;18.80;87.40;;;;;;5095119;28;20033;-79
2023/07/22 08:32:31;;;;;;;17.77;8.05;;;18.80;85.60;;;;;;5094951;28;20028;-79
2023/07/22 08:34:57;;;;;;;14.27;7.38;;;18.80;85.80;;;;;;5093827;28;20033;-79
2023/07/22 08:37:22;;;;;;;16.30;6.97;;;18.90;86.80;;;;;;5094930;28;20039;-79
2023/07/22 08:39:48;;;;;;;14.80;7.30;;;18.90;84.80;;;;;;5093927;28;20033;-78
2023/07/22 08:42:18;;;;;;;14.55;7.32;;;18.90;84.60;;;;;;5093807;28;20032;-78
2023/07/22 08:44:46;;;;;;;13.57;6.72;;;18.90;84.80;;;;;;5094872;28;20016;-78
2023/07/22 08:47:15;;;;;;;12.38;6.47;;;18.90;84.40;;;;;;5093630;28;20020;-79
2023/07/22 08:49:49;;;;;;;19.88;8.07;;;18.80;84.90;;;;;;5094816;28;20027;-79
2023/07/22 08:52:15;;;;;;;15.82;7.13;;;19.00;84.30;;;;;;5094702;28;20024;-79
2023/07/22 08:54:42;;;;;;;13.00;6.32;;;19.10;85.50;;;;;;5094553;28;20074;-78
2023/07/22 08:57:10;;;;;;;15.98;6.15;;;19.20;84.50;;;;;;5094117;28;20052;-78
2023/07/22 08:59:37;;;;;;;13.40;6.15;;;19.20;83.70;;;;;;5093654;28;20021;-78
2023/07/22 09:02:03;;;;;;;10.95;5.70;;;19.20;83.90;;;;;;5094409;28;20033;-79
2023/07/22 09:04:29;;;;;;;12.68;5.35;;;19.30;82.60;;;;;;5094410;28;20028;-78
2023/07/22 09:06:56;;;;;;;12.65;6.57;;;19.40;82.60;;;;;;5094278;28;20135;-76
2023/07/22 09:09:22;;;;;;;13.63;6.03;;;19.50;83.50;;;;;;5093227;28;20036;-78
2023/07/22 09:11:49;;;;;;;10.93;5.50;;;19.60;82.50;;;;;;5093205;28;20479;-78
2023/07/22 09:14:18;;;;;;;13.15;5.70;;;19.60;82.70;;;;;;5094187;28;20036;-76
2023/07/22 09:16:44;;;;;;;11.82;5.32;;;19.70;82.20;;;;;;5093080;28;20027;-78
2023/07/22 09:19:09;;;;;;;9.45;5.30;;;19.80;81.10;;;;;;5093244;28;20028;-80
2023/07/22 09:21:37;;;;;;;12.75;6.03;;;19.70;80.80;;;;;;5093029;28;20029;-78
2023/07/22 09:24:24;;;;;;;10.07;4.53;;;19.80;80.40;;;;;;5093179;28;20038;-78
2023/07/22 09:26:50;;;;;;;11.35;4.97;;;19.70;77.60;;;;;;5094001;28;20031;-78
2023/07/22 09:29:16;;;;;;;8.35;4.50;;;19.80;79.20;;;;;;5093908;28;20059;-75
2023/07/22 09:32:00;;;;;;;15.93;6.25;;;19.70;79.00;;;;;;5093757;28;20029;-76
2023/07/22 09:34:27;;;;;;;9.80;5.13;;;19.80;79.70;;;;;;5092725;28;20052;-77
2023/07/22 09:36:57;;;;;;;8.30;4.70;;;19.80;80.20;;;;;;5093736;28;20399;-77
2023/07/22 09:39:24;;;;;;;10.80;4.60;;;19.90;79.90;;;;;;5093707;28;20039;-78
2023/07/22 09:41:52;;;;;;;9.23;4.43;;;19.90;78.90;;;;;;5093692;28;20024;-80
2023/07/22 09:44:18;;;;;;;10.35;4.80;;;19.90;78.90;;;;;;5093634;28;20021;-79
2023/07/22 09:46:48;;;;;;;8.55;4.28;;;19.90;77.70;;;;;;5092595;28;20031;-78
2023/07/22 09:49:16;;;;;;;8.23;4.10;;;19.90;77.30;;;;;;5092629;28;20104;-78
2023/07/22 09:51:42;;;;;;;5.80;3.75;;;20.00;78.50;;;;;;5093438;28;20487;-78
2023/07/22 09:54:08;;;;;;;8.52;3.85;;;20.00;78.00;;;;;;5075921;28;20020;-80
2023/07/22 09:56:47;;;;;;;7.18;3.97;;;20.10;76.50;;;;;;5093272;28;20049;-77
2023/07/22 09:59:13;;;;;;;13.15;3.95;;;20.10;77.40;;;;;;5093577;28;20031;-78
2023/07/22 10:01:40;;;;;;;8.85;4.03;;;20.10;77.10;;;;;;5093429;28;20027;-78
2023/07/22 10:04:06;;;;;;;9.15;4.13;;;20.20;76.80;;;;;;5093375;28;20040;-78
2023/07/22 10:06:33;;;;;;;10.02;4.72;;;20.20;74.50;;;;;;5093387;28;20211;-78
2023/07/22 10:09:08;;;;;;;7.03;3.97;;;20.30;75.00;;;;;;5093367;28;20040;-78
2023/07/22 10:11:35;;;;;;;7.57;3.42;;;20.30;75.30;;;;;;5092030;28;20028;-78
2023/07/22 10:14:04;;;;;;;5.80;3.80;;;20.30;75.30;;;;;;5092378;28;20044;-78
2023/07/22 10:16:31;;;;;;;6.53;4.10;;;20.30;74.70;;;;;;5093377;28;20521;-78
2023/07/22 10:18:58;;;;;;;7.93;3.85;;;20.20;74.80;;;;;;5093273;28;20020;-78
2023/07/22 10:21:25;;;;;;;8.18;4.30;;;20.30;75.20;;;;;;5092210;28;20384;-78
2023/07/22 10:23:52;;;;;;;7.43;3.92;;;20.30;75.20;;;;;;5092340;28;20048;-79
2023/07/22 10:26:19;;;;;;;13.93;4.55;;;20.30;74.40;;;;;;5093167;28;20043;-79
2023/07/22 10:28:46;;;;;;;10.45;4.05;;;20.30;75.20;;;;;;5093132;28;20025;-78
2023/07/22 10:31:18;;;;;;;9.48;3.75;;;20.30;75.40;;;;;;5092140;28;20025;-76
2023/07/22 10:33:47;;;;;;;6.55;3.63;;;20.40;75.80;;;;;;5092281;28;20044;-76
2023/07/22 10:36:18;;;;;;;8.93;3.70;;;20.30;73.90;;;;;;5093088;28;20033;-75
2023/07/22 10:38:54;;;;;;;9.88;3.80;;;20.30;73.90;;;;;;5093116;28;20053;-76
2023/07/22 10:41:21;;;;;;;10.35;3.53;;;20.30;76.60;;;;;;5092029;28;20017;-76
2023/07/22 10:43:55;;;;;;;6.55;3.50;;;20.20;75.00;;;;;;5093072;28;20020;-76
2023/07/22 10:46:35;;;;;;;6.30;3.53;;;20.20;75.10;;;;;;5091928;28;20042;-76
2023/07/22 10:49:13;;;;;;;15.55;4.32;;;20.20;76.00;;;;;;5093027;28;20025;-76
2023/07/22 10:51:39;;;;;;;6.35;3.67;;;20.30;76.10;;;;;;5092961;28;20051;-76
2023/07/22 10:54:12;;;;;;;6.03;3.47;;;20.30;75.70;;;;;;5091935;28;20045;-76
2023/07/22 10:56:40;;;;;;;5.47;3.25;;;20.40;74.40;;;;;;5092771;28;20067;-76
2023/07/22 10:59:09;;;;;;;5.90;3.20;;;20.40;74.60;;;;;;5092882;28;20031;-76
2023/07/22 11:01:37;;;;;;;6.07;3.33;;;20.40;74.20;;;;;;5092838;28;20035;-76
2023/07/22 11:04:05;;;;;;;6.78;3.80;;;20.40;74.60;;;;;;5092809;28;20031;-76
2023/07/22 11:06:31;;;;;;;6.10;3.40;;;20.50;75.60;;;;;;5091873;28;20100;-76
2023/07/22 11:08:56;;;;;;;6.47;3.40;;;20.50;76.80;;;;;;5092800;28;20036;-77
2023/07/22 11:11:44;;;;;;;7.97;3.55;;;20.60;75.80;;;;;;5092721;28;20093;-76
2023/07/22 11:14:21;;;;;;;6.25;3.83;;;20.60;76.10;;;;;;5092772;28;20027;-76
2023/07/22 11:16:48;;;;;;;7.05;3.40;;;20.70;75.20;;;;;;5092695;28;20025;-76
2023/07/22 11:19:20;;;;;;;6.57;2.95;;;20.60;75.00;;;;;;5091925;28;20051;-77
2023/07/22 11:21:47;;;;;;;5.28;3.00;;;20.70;73.30;;;;;;5092649;28;20108;-76
2023/07/22 11:24:13;;;;;;;6.28;3.08;;;20.60;72.40;;;;;;5094927;28;20510;-76
2023/07/22 11:26:42;;;;;;;5.45;2.80;;;20.60;72.40;;;;;;5096285;28;20025;-76
2023/07/22 11:29:09;;;;;;;4.95;2.88;;;20.60;73.60;;;;;;5095181;28;20032;-77
2023/07/22 11:31:42;;;;;;;6.35;2.70;;;20.70;73.60;;;;;;5096112;28;20036;-77
2023/07/22 11:34:08;;;;;;;5.00;2.40;;;20.70;73.70;;;;;;5096132;28;20020;-76
2023/07/22 11:36:35;;;;;;;4.88;2.30;;;20.90;73.30;;;;;;5096078;28;20470;-76
2023/07/22 11:39:09;;;;;;;4.38;2.55;;;21.10;72.20;;;;;;5095118;28;20536;-76
2023/07/22 11:41:36;;;;;;;3.38;2.20;;;21.10;73.40;;;;;;5078231;28;20032;-77
2023/07/22 11:44:09;;;;;;;4.85;2.28;;;21.20;70.80;;;;;;5095992;28;20499;-77
2023/07/22 11:46:36;;;;;;;7.38;3.13;;;21.20;70.90;;;;;;5095967;28;20028;-76
2023/07/22 11:49:03;;;;;;;3.72;2.30;;;21.30;73.20;;;;;;5095906;28;20047;-77
2023/07/22 11:51:29;;;;;;;3.55;1.85;;;21.30;72.60;;;;;;5094728;28;20044;-76
2023/07/22 11:53:55;;;;;;;3.15;1.85;;;21.30;69.10;;;;;;5095792;28;20024;-76
2023/07/22 11:56:27;;;;;;;2.45;1.42;;;21.30;70.70;;;;;;5094556;28;20079;-76
2023/07/22 11:58:54;;;;;;;3.58;2.00;;;21.30;69.00;;;;;;5095792;28;20017;-76
2023/07/22 12:01:20;;;;;;;4.78;1.83;;;21.30;68.70;;;;;;5095653;28;20024;-76
2023/07/22 12:03:46;;;;;;;4.93;1.98;;;21.30;69.30;;;;;;5095642;28;20024;-76
2023/07/22 12:06:12;;;;;;;7.53;2.38;;;21.30;67.10;;;;;;5095583;28;20082;-76
2023/07/22 12:08:48;;;;;;;3.50;1.63;;;21.30;67.00;;;;;;5094478;28;20050;-76
2023/07/22 12:11:22;;;;;;;2.70;1.35;;;21.30;65.20;;;;;;5095513;28;20028;-76
2023/07/22 12:14:03;;;;;;;3.70;1.77;;;21.40;66.40;;;;;;5095434;28;20029;-77
2023/07/22 12:16:29;;;;;;;3.85;1.60;;;21.60;66.90;;;;;;5095437;28;20020;-77
2023/07/22 12:18:56;;;;;;;3.25;2.15;;;21.70;66.50;;;;;;5095320;28;20029;-76
2023/07/22 12:21:22;;;;;;;4.32;1.80;;;21.70;68.00;;;;;;5095300;28;20021;-76
2023/07/22 12:23:48;;;;;;;4.68;2.40;;;21.80;68.10;;;;;;5095264;28;20028;-77
2023/07/22 12:26:14;;;;;;;4.65;2.50;;;21.70;66.70;;;;;;5094160;28;20051;-76
2023/07/22 12:28:39;;;;;;;3.63;1.92;;;21.60;65.60;;;;;;5095129;28;20092;-77
2023/07/22 12:31:05;;;;;;;5.45;2.10;;;21.60;66.00;;;;;;5094103;28;20028;-76
2023/07/22 12:33:31;;;;;;;4.63;2.00;;;21.50;66.40;;;;;;5093587;28;20029;-77
2023/07/22 12:35:57;;;;;;;3.60;1.70;;;21.50;66.20;;;;;;5094282;28;20043;-76